Time;durP1;ratioP1;P1;durP2;ratioP2;P2;SDS_P1;SDS_P2;PMS_P1;PMS_P2;Temp;Humidity;BMP_temperature;BMP_pressure;BME280_temperature;BME280_humidity;BME280_pressure;Samples;Min_cycle;Max_cycle;Signal;HPM_P1;HPM_P2
2022/01/24 00:00:13;;;;;;;19.88;11.63;;;;;;;-3.77;84.16;102605.56;5052333;28;20029;-70
2022/01/24 00:03:03;;;;;;;18.83;12.68;;;;;;;-3.50;84.22;102634.63;5052571;28;20460;-70
2022/01/24 00:05:29;;;;;;;21.20;13.27;;;;;;;-3.55;84.09;102626.91;5052008;28;20072;-69
2022/01/24 00:07:54;;;;;;;18.97;11.60;;;;;;;-3.56;83.80;102621.72;5052367;28;20500;-71
2022/01/24 00:10:24;;;;;;;25.23;14.80;;;;;;;-3.62;83.59;102633.09;5052491;28;20350;-70
2022/01/24 00:15:47;;;;;;;21.27;12.10;;;;;;;-3.94;83.92;102565.97;5051889;28;20041;-68
2022/01/24 00:18:13;;;;;;;25.58;11.82;;;;;;;-3.49;83.28;102632.00;5050054;28;20079;-69
2022/01/24 00:28:51;;;;;;;20.80;12.85;;;;;;;-3.59;82.71;102614.81;5052129;28;20048;-71
2022/01/24 00:31:17;;;;;;;21.60;11.73;;;;;;;-3.57;83.09;102613.03;5051960;28;20516;-68
2022/01/24 00:33:42;;;;;;;21.60;11.97;;;;;;;-3.45;83.37;102618.06;5051679;28;20040;-68
2022/01/24 00:36:08;;;;;;;19.27;10.93;;;;;;;-3.59;83.28;102591.38;5051713;28;20072;-69
2022/01/24 00:38:33;;;;;;;21.30;11.40;;;;;;;-3.49;82.86;102600.75;5050392;28;20079;-68
2022/01/24 00:40:59;;;;;;;19.07;11.03;;;;;;;-3.48;82.77;102593.78;5050767;28;20485;-69
2022/01/24 00:43:38;;;;;;;25.07;12.37;;;;;;;-3.51;82.92;102596.44;5052018;28;20047;-69
2022/01/24 00:46:09;;;;;;;18.98;12.25;;;;;;;-3.45;83.04;102602.44;5052114;28;20029;-70
2022/01/24 00:48:56;;;;;;;18.27;11.77;;;;;;;-3.44;83.29;102587.66;5052278;28;20045;-72
2022/01/24 00:54:42;;;;;;;20.73;12.15;;;;;;;-3.44;82.94;102572.88;5055623;28;20045;-70
2022/01/24 00:56:51;;;;;;;16.13;10.27;;;;;;;-3.38;83.24;102576.25;5055593;28;20565;-68
2022/01/24 00:59:16;;;;;;;24.15;13.48;;;;;;;-3.38;83.17;102566.69;5055857;28;20389;-69
2022/01/24 01:01:42;;;;;;;18.40;10.37;;;;;;;-3.32;83.53;102570.91;5054633;28;20052;-68
2022/01/24 01:04:08;;;;;;;18.30;11.23;;;;;;;-3.39;83.54;102561.50;5055780;28;20488;-70
2022/01/24 01:06:33;;;;;;;17.83;11.00;;;;;;;-3.32;83.27;102576.13;5055415;28;20067;-69
2022/01/24 01:19:59;;;;;;;18.85;11.75;;;;;;;-3.07;82.75;102564.34;5055221;28;20144;-70
2022/01/24 01:22:25;;;;;;;20.10;11.68;;;;;;;-3.13;83.16;102567.94;5054974;28;20064;-69
2022/01/24 01:24:53;;;;;;;20.03;11.90;;;;;;;-3.24;83.31;102558.59;5054969;28;20080;-69
2022/01/24 01:27:33;;;;;;;15.73;11.25;;;;;;;-3.14;83.23;102570.56;5055004;28;20029;-69
2022/01/24 01:30:04;;;;;;;16.42;9.52;;;;;;;-3.13;83.56;102564.47;5055100;28;20153;-71
2022/01/24 01:54:06;;;;;;;22.25;12.52;;;;;;;-3.18;83.73;102543.72;5054765;28;20075;-68
2022/01/24 01:56:32;;;;;;;20.27;11.35;;;;;;;-3.23;83.92;102555.94;5053277;28;20123;-68
2022/01/24 01:58:58;;;;;;;18.90;11.93;;;;;;;-3.18;83.66;102561.06;5053337;28;20516;-68
2022/01/24 02:01:23;;;;;;;27.57;13.97;;;;;;;-3.29;84.33;102550.00;5054252;28;20508;-67
2022/01/24 02:03:50;;;;;;;21.60;14.40;;;;;;;-3.48;85.16;102550.34;5053847;28;20083;-67
2022/01/24 02:06:16;;;;;;;21.25;11.25;;;;;;;-3.50;85.42;102557.34;5052548;28;20075;-69
2022/01/24 02:08:42;;;;;;;23.13;13.13;;;;;;;-3.49;85.88;102553.84;5054425;28;20473;-68
2022/01/24 02:11:10;;;;;;;25.77;13.88;;;;;;;-3.46;85.95;102552.97;5054446;28;20040;-68
2022/01/24 02:13:36;;;;;;;28.17;13.52;;;;;;;-3.39;84.97;102551.09;5054407;28;20075;-66
2022/01/24 02:18:53;;;;;;;22.05;13.27;;;;;;;-3.25;84.69;102562.94;5054061;28;20044;-68
2022/01/24 02:24:25;;;;;;;23.55;12.98;;;;;;;-3.37;84.59;102550.16;5051515;28;20091;-69
2022/01/24 02:26:55;;;;;;;21.92;13.43;;;;;;;-3.26;84.69;102563.84;5051526;28;20068;-70
2022/01/24 02:29:45;;;;;;;32.13;16.73;;;;;;;-3.31;84.71;102557.00;5052364;28;20043;-67
2022/01/24 02:32:12;;;;;;;33.33;13.82;;;;;;;-3.35;85.07;102576.19;5052762;28;20040;-69
2022/01/24 02:34:40;;;;;;;25.52;14.23;;;;;;;-3.38;85.65;102571.03;5053567;28;20039;-66
2022/01/24 02:37:09;;;;;;;22.17;11.15;;;;;;;-3.36;85.49;102562.31;5053456;28;20604;-67
2022/01/24 02:53:26;;;;;;;28.48;14.68;;;;;;;-3.32;84.61;102529.25;5052280;28;20127;-67
2022/01/24 02:55:52;;;;;;;29.77;14.38;;;;;;;-3.30;84.69;102527.47;5051898;28;20127;-66
2022/01/24 02:58:17;;;;;;;19.77;10.87;;;;;;;-3.22;84.40;102535.97;5053191;28;20128;-69
2022/01/24 03:00:45;;;;;;;21.90;12.23;;;;;;;-3.18;85.18;102538.50;5053434;28;20041;-67
2022/01/24 03:03:12;;;;;;;26.35;14.18;;;;;;;-3.18;84.75;102537.63;5053701;28;20116;-67
2022/01/24 03:05:38;;;;;;;19.83;12.32;;;;;;;-3.25;84.90;102533.44;5053334;28;20128;-69
2022/01/24 03:08:05;;;;;;;23.07;13.83;;;;;;;-3.19;84.38;102530.69;5052865;28;20522;-68
2022/01/24 03:10:40;;;;;;;20.33;11.63;;;;;;;-3.21;84.18;102519.44;5053061;28;20275;-69
2022/01/24 03:15:38;;;;;;;23.13;13.27;;;;;;;-3.08;83.84;102528.75;5052600;28;20057;-68
2022/01/24 03:18:05;;;;;;;20.92;11.82;;;;;;;-3.12;84.75;102516.66;5052468;28;20052;-69
2022/01/24 03:20:31;;;;;;;22.13;10.88;;;;;;;-3.05;84.61;102526.06;5052958;28;20045;-70
2022/01/24 03:22:57;;;;;;;19.37;11.70;;;;;;;-3.07;83.98;102508.75;5053149;28;20029;-67
2022/01/24 03:25:22;;;;;;;24.00;13.70;;;;;;;-3.12;84.64;102512.31;5035089;28;20033;-69
2022/01/24 03:27:47;;;;;;;23.80;12.40;;;;;;;-3.09;84.49;102506.16;5052877;28;20517;-68
2022/01/24 03:30:13;;;;;;;25.50;12.10;;;;;;;-3.05;84.71;102501.75;5052649;28;20037;-68
2022/01/24 03:32:38;;;;;;;21.67;11.63;;;;;;;-3.10;84.12;102496.63;5052717;28;20056;-70
2022/01/24 03:35:07;;;;;;;19.37;11.17;;;;;;;-3.02;84.39;102499.06;5052643;28;20041;-68
2022/01/24 03:37:34;;;;;;;17.35;12.15;;;;;;;-3.04;84.38;102493.03;5052391;28;20553;-71
2022/01/24 03:40:01;;;;;;;18.80;11.57;;;;;;;-2.95;84.46;102496.28;5052289;28;20048;-67
2022/01/24 03:42:26;;;;;;;23.40;11.48;;;;;;;-2.88;84.04;102510.94;5052371;28;20033;-68
2022/01/24 03:44:57;;;;;;;22.23;12.17;;;;;;;-2.94;84.04;102482.34;5052550;28;20404;-67
2022/01/24 03:50:06;;;;;;;23.90;12.27;;;;;;;-2.78;83.49;102479.41;5052419;28;20767;-70
2022/01/24 03:52:31;;;;;;;19.25;11.07;;;;;;;-2.87;83.96;102483.97;5052243;28;20527;-69
2022/01/24 03:54:58;;;;;;;23.60;11.93;;;;;;;-2.87;83.53;102489.19;5052089;28;20036;-68
2022/01/24 03:57:25;;;;;;;19.88;11.43;;;;;;;-2.90;84.03;102489.22;5052465;28;20048;-70
2022/01/24 03:59:51;;;;;;;20.27;12.50;;;;;;;-2.89;84.04;102482.25;5052461;28;20044;-70
2022/01/24 04:02:19;;;;;;;21.02;12.13;;;;;;;-2.79;83.56;102481.16;5050947;28;20035;-68
2022/01/24 04:04:45;;;;;;;19.80;11.98;;;;;;;-2.83;83.84;102479.53;5052337;28;20037;-68
2022/01/24 04:07:11;;;;;;;17.53;11.47;;;;;;;-2.88;84.08;102474.44;5052159;28;20033;-68
2022/01/24 04:09:39;;;;;;;17.80;11.60;;;;;;;-2.84;83.83;102470.84;5051476;28;20554;-70
2022/01/24 04:12:06;;;;;;;20.27;11.90;;;;;;;-2.91;83.57;102463.19;5052051;28;20037;-67
2022/01/24 04:14:40;;;;;;;24.48;11.98;;;;;;;-2.87;84.48;102476.13;5051980;28;20033;-67
2022/01/24 04:22:36;;;;;;;18.52;10.35;;;;;;;-2.92;84.07;102456.25;5052112;28;20128;-65
2022/01/24 04:25:03;;;;;;;21.30;12.07;;;;;;;-2.94;84.19;102464.13;5051866;28;20037;-65
2022/01/24 04:27:30;;;;;;;19.25;11.43;;;;;;;-3.02;84.15;102455.63;5050908;28;20151;-67
2022/01/24 04:29:57;;;;;;;26.55;13.52;;;;;;;-3.09;84.15;102459.25;5051662;28;20059;-65
2022/01/24 04:32:23;;;;;;;19.75;12.10;;;;;;;-3.11;84.73;102445.41;5051425;28;20468;-69
2022/01/24 04:34:49;;;;;;;19.77;12.07;;;;;;;-3.06;85.28;102445.28;5051691;28;20033;-67
2022/01/24 04:37:16;;;;;;;18.27;11.07;;;;;;;-3.06;84.94;102443.53;5051559;28;20037;-66
2022/01/24 04:39:43;;;;;;;20.63;12.48;;;;;;;-2.94;84.35;102452.81;5050266;28;20033;-68
2022/01/24 04:42:14;;;;;;;24.58;12.73;;;;;;;-2.98;85.20;102446.84;5051532;28;20333;-65
2022/01/24 04:50:23;;;;;;;19.13;11.43;;;;;;;-2.92;85.17;102449.28;5049834;28;20051;-66
2022/01/24 04:50:42;;;;;;;22.63;11.75;;;;;;;-2.90;85.00;102433.59;5051492;28;20033;-66
2022/01/24 04:55:52;;;;;;;14.45;9.15;;;;;;;-2.85;84.86;102435.25;5050866;28;20143;-66
2022/01/24 04:58:17;;;;;;;18.87;11.90;;;;;;;-2.87;84.70;102421.38;5050259;28;20060;-66
2022/01/24 05:00:42;;;;;;;22.53;11.30;;;;;;;-2.95;84.30;102405.03;5051412;28;20033;-66
2022/01/24 05:03:08;;;;;;;16.30;10.73;;;;;;;-2.86;84.85;102430.91;5051222;28;20116;-64
2022/01/24 05:05:33;;;;;;;18.73;10.43;;;;;;;-2.85;84.62;102427.41;5051800;28;20071;-66
2022/01/24 05:08:04;;;;;;;17.23;10.50;;;;;;;-2.88;84.60;102409.25;5051453;28;20044;-66
2022/01/24 05:10:38;;;;;;;22.60;12.38;;;;;;;-2.80;84.65;102403.84;5051261;28;20037;-66
2022/01/24 05:24:08;;;;;;;25.15;11.25;;;;;;;-2.65;84.47;102407.81;5050251;28;20587;-65
2022/01/24 05:26:34;;;;;;;19.37;11.83;;;;;;;-2.65;84.46;102402.59;5051104;28;20124;-65
2022/01/24 05:28:59;;;;;;;17.33;11.40;;;;;;;-2.70;84.66;102405.31;5051593;28;20148;-65
2022/01/24 05:31:25;;;;;;;24.80;13.73;;;;;;;-2.75;84.93;102394.16;5051221;28;20037;-65
2022/01/24 05:33:50;;;;;;;20.03;10.77;;;;;;;-2.69;84.57;102408.78;5051078;28;20120;-67
2022/01/24 05:36:16;;;;;;;20.87;10.33;;;;;;;-2.64;84.50;102415.59;5050934;28;20127;-66
2022/01/24 05:38:41;;;;;;;21.47;11.97;;;;;;;-2.71;84.31;102402.75;5050610;28;20029;-65
2022/01/24 05:41:07;;;;;;;19.57;11.37;;;;;;;-2.76;84.97;102402.88;5053873;28;20048;-66
2022/01/24 05:43:35;;;;;;;19.80;11.00;;;;;;;-2.81;84.98;102402.97;5054385;28;20041;-68
2022/01/24 05:46:01;;;;;;;19.05;10.60;;;;;;;-2.82;84.77;102390.84;5052866;28;20040;-68
2022/01/24 05:48:26;;;;;;;26.33;11.40;;;;;;;-2.66;84.49;102406.09;5050719;28;20045;-67
2022/01/24 05:50:52;;;;;;;19.20;11.93;;;;;;;-2.65;84.58;102393.00;5053875;28;20040;-67
2022/01/24 05:53:17;;;;;;;20.57;10.50;;;;;;;-2.62;84.74;102397.28;5053794;28;20037;-69
2022/01/24 05:55:43;;;;;;;20.60;12.03;;;;;;;-2.65;85.00;102392.16;5056296;28;20045;-69
2022/01/24 05:58:08;;;;;;;17.93;11.17;;;;;;;-2.70;84.30;102379.25;5055326;28;20040;-68
2022/01/24 06:00:34;;;;;;;19.40;11.00;;;;;;;-2.67;84.76;102380.91;5054681;28;20484;-75
2022/01/24 06:03:00;;;;;;;15.97;9.87;;;;;;;-2.85;84.26;102364.84;5054357;28;20162;-69
2022/01/24 06:05:27;;;;;;;19.63;10.17;;;;;;;-2.68;84.89;102379.19;5054085;28;20523;-68
2022/01/24 06:07:54;;;;;;;16.90;11.32;;;;;;;-2.61;84.23;102393.78;5053892;28;20041;-70
2022/01/24 06:10:19;;;;;;;20.52;11.05;;;;;;;-2.60;84.55;102392.94;5052828;28;20041;-69
2022/01/24 06:13:10;;;;;;;15.30;9.77;;;;;;;-2.59;84.60;102384.22;5057135;28;20119;-69
2022/01/24 06:15:42;;;;;;;13.90;9.10;;;;;;;-2.61;85.21;102373.78;5038040;28;20037;-69
2022/01/24 06:18:08;;;;;;;16.75;9.68;;;;;;;-2.62;84.58;102376.44;5056156;28;20540;-65
2022/01/24 06:20:34;;;;;;;15.37;9.73;;;;;;;-2.90;85.25;102317.16;5054395;28;20068;-63
2022/01/24 06:22:59;;;;;;;17.83;10.70;;;;;;;-2.65;84.88;102361.72;5052833;28;20044;-71
2022/01/24 06:25:25;;;;;;;16.23;9.40;;;;;;;-2.64;84.80;102362.56;5052684;28;20047;-69
2022/01/24 06:27:51;;;;;;;20.37;10.93;;;;;;;-2.62;85.20;102366.00;5054089;28;20078;-67
2022/01/24 06:30:18;;;;;;;15.32;9.05;;;;;;;-2.67;85.30;102362.66;5053256;28;20128;-65
2022/01/24 06:32:43;;;;;;;13.85;8.80;;;;;;;-2.61;85.02;102368.56;5053552;28;20045;-67
2022/01/24 06:35:10;;;;;;;15.13;9.70;;;;;;;-2.59;84.74;102347.69;5053481;28;20037;-69
2022/01/24 06:37:37;;;;;;;13.85;9.27;;;;;;;-2.57;85.03;102354.56;5053258;28;20495;-72
2022/01/24 06:40:04;;;;;;;14.43;8.90;;;;;;;-2.60;85.42;102346.84;5053493;28;20041;-66
2022/01/24 06:42:29;;;;;;;20.33;12.23;;;;;;;-2.76;85.39;102313.34;5052168;28;20154;-70
2022/01/24 06:44:56;;;;;;;12.13;9.10;;;;;;;-2.54;85.31;102344.06;5053386;28;20041;-65
2022/01/24 06:47:22;;;;;;;20.55;9.70;;;;;;;-2.54;85.37;102338.00;5053257;28;20076;-67
2022/01/24 06:49:48;;;;;;;12.20;8.38;;;;;;;-2.45;84.98;102350.78;5053153;28;20064;-65
2022/01/24 06:52:14;;;;;;;12.40;7.78;;;;;;;-2.47;85.00;102334.31;5052076;28;20530;-68
2022/01/24 06:54:41;;;;;;;10.70;7.50;;;;;;;-2.38;84.79;102326.22;5052300;28;20052;-70
2022/01/24 06:57:09;;;;;;;12.70;8.55;;;;;;;-2.41;84.40;102323.69;5053072;28;20392;-70
2022/01/24 06:59:35;;;;;;;14.18;8.95;;;;;;;-2.31;84.52;102335.63;5053078;28;20033;-71
2022/01/24 07:02:01;;;;;;;13.25;8.93;;;;;;;-2.55;84.59;102298.00;5051831;28;20075;-68
2022/01/24 07:04:26;;;;;;;12.70;8.17;;;;;;;-2.33;84.92;102332.16;5052807;28;20480;-63
2022/01/24 07:06:52;;;;;;;14.40;8.73;;;;;;;-2.45;85.24;102302.97;5053034;28;20029;-70
2022/01/24 07:09:18;;;;;;;11.43;8.47;;;;;;;-2.25;84.96;102330.22;5051719;28;20122;-63
2022/01/24 07:11:43;;;;;;;13.77;7.67;;;;;;;-2.18;84.48;102325.69;5052984;28;20040;-67
2022/01/24 07:14:12;;;;;;;14.47;7.83;;;;;;;-2.24;84.07;102313.66;5052837;28;20124;-66
2022/01/24 07:19:29;;;;;;;9.25;7.30;;;;;;;-2.16;84.38;102309.97;5052925;28;20110;-72
2022/01/24 07:21:57;;;;;;;14.80;8.30;;;;;;;-2.06;84.20;102311.41;5052927;28;20543;-68
2022/01/24 07:24:23;;;;;;;13.55;8.50;;;;;;;-2.12;83.76;102303.78;5052628;28;20041;-67
2022/01/24 07:26:49;;;;;;;11.98;8.40;;;;;;;-2.05;84.28;102310.53;5051291;28;20033;-66
2022/01/24 07:29:14;;;;;;;12.27;8.07;;;;;;;-2.01;83.75;102317.38;5052308;28;20041;-66
2022/01/24 07:31:40;;;;;;;12.40;7.33;;;;;;;-2.04;84.02;102296.56;5053173;28;20115;-67
2022/01/24 07:34:05;;;;;;;9.47;6.60;;;;;;;-2.07;83.91;102307.09;5051200;28;20056;-70
2022/01/24 07:36:31;;;;;;;14.63;7.80;;;;;;;-2.05;83.34;102295.72;5052385;28;20039;-68
2022/01/24 07:38:57;;;;;;;11.40;7.67;;;;;;;-1.98;83.32;102304.25;5052387;28;20456;-63
2022/01/24 07:41:26;;;;;;;10.53;7.27;;;;;;;-2.00;83.75;102293.84;5052186;28;20045;-64
2022/01/24 07:43:51;;;;;;;;;;;;;;;-1.91;83.71;102295.31;5052420;28;20064;-66
2022/01/24 07:46:17;;;;;;;14.43;7.27;;;;;;;-1.95;83.06;102291.09;5052424;28;19920;-67
2022/01/24 07:48:43;;;;;;;11.27;6.90;;;;;;;-1.94;83.53;102291.06;5052635;28;20091;-77
2022/01/24 07:51:08;;;;;;;10.53;7.13;;;;;;;-1.92;83.01;102276.19;5052781;28;20090;-64
2022/01/24 07:53:34;;;;;;;11.30;7.40;;;;;;;-1.97;83.67;102282.47;5052302;28;20043;-73
2022/01/24 07:56:00;;;;;;;8.43;5.60;;;;;;;-1.91;83.91;102284.88;5052186;28;20037;-70
2022/01/24 07:58:26;;;;;;;9.50;7.37;;;;;;;-2.04;84.29;102275.69;5052022;28;20072;-68
2022/01/24 08:00:51;;;;;;;10.13;6.68;;;;;;;-2.13;83.62;102261.16;5034216;28;20090;-67
2022/01/24 08:03:17;;;;;;;13.23;7.33;;;;;;;-1.99;84.21;102287.72;5051586;28;20040;-67
2022/01/24 08:05:43;;;;;;;10.07;7.53;;;;;;;-1.95;83.85;102272.81;5052073;28;20040;-68
2022/01/24 08:08:08;;;;;;;11.10;7.33;;;;;;;-1.89;83.63;102290.91;5050733;28;20039;-64
2022/01/24 08:10:34;;;;;;;12.27;6.83;;;;;;;-1.91;83.94;102279.66;5051943;28;20542;-68
2022/01/24 08:13:00;;;;;;;11.37;7.43;;;;;;;-2.16;83.69;102224.69;5052230;28;20040;-70
2022/01/24 08:15:28;;;;;;;10.30;6.77;;;;;;;-1.91;83.86;102267.47;5050617;28;20048;-65
2022/01/24 08:17:56;;;;;;;11.57;7.50;;;;;;;-1.97;82.94;102261.56;5051933;28;20045;-70
2022/01/24 08:20:22;;;;;;;10.73;6.30;;;;;;;-1.94;83.62;102264.09;5052297;28;20047;-72
2022/01/24 08:22:47;;;;;;;9.90;6.45;;;;;;;-1.90;83.62;102266.56;5050659;28;20399;-70
2022/01/24 08:25:13;;;;;;;9.60;6.63;;;;;;;-1.93;83.93;102264.03;5052004;28;20029;-71
2022/01/24 08:27:39;;;;;;;8.70;6.00;;;;;;;-1.84;83.51;102268.13;5051827;28;20385;-71
2022/01/24 08:30:07;;;;;;;8.27;6.50;;;;;;;-1.84;83.91;102270.72;5050710;28;20263;-73
2022/01/24 08:32:33;;;;;;;11.75;7.35;;;;;;;-1.88;83.96;102266.50;5051815;28;20032;-74
2022/01/24 08:34:59;;;;;;;9.00;6.33;;;;;;;-1.91;83.57;102250.94;5052054;28;20075;-67
2022/01/24 08:37:25;;;;;;;9.15;6.07;;;;;;;-1.85;83.26;102261.19;5051735;28;20037;-67
2022/01/24 08:39:51;;;;;;;10.77;6.43;;;;;;;-1.79;83.55;102260.13;5051504;28;20170;-72
2022/01/24 08:42:23;;;;;;;7.93;6.40;;;;;;;-1.89;83.94;102249.13;5051378;28;20040;-73
2022/01/24 08:47:22;;;;;;;10.63;7.50;;;;;;;-1.78;83.53;102249.63;5051354;28;20041;-73
2022/01/24 08:49:48;;;;;;;14.25;8.20;;;;;;;-1.72;83.56;102259.06;5051511;28;20037;-70
2022/01/24 08:52:14;;;;;;;12.83;6.80;;;;;;;-1.88;83.39;102232.56;5051740;28;20044;-70
2022/01/24 08:54:39;;;;;;;9.63;7.37;;;;;;;-1.83;83.33;102243.72;5051401;28;20047;-69
2022/01/24 08:57:05;;;;;;;10.47;6.57;;;;;;;-1.73;83.53;102266.06;5051314;28;20041;-70
2022/01/24 08:59:32;;;;;;;13.87;7.03;;;;;;;-1.71;83.38;102253.81;5051376;28;20435;-65
2022/01/24 09:01:58;;;;;;;11.30;6.68;;;;;;;-1.76;83.18;102226.94;5051242;28;20041;-65
2022/01/24 09:04:23;;;;;;;9.38;5.95;;;;;;;-1.66;82.63;102233.59;5051463;28;20032;-66
2022/01/24 09:06:49;;;;;;;9.93;6.20;;;;;;;-1.60;82.15;102230.78;5051439;28;20044;-64
2022/01/24 09:09:15;;;;;;;7.63;6.03;;;;;;;-1.61;82.92;102239.53;5051347;28;20160;-65
2022/01/24 09:11:41;;;;;;;9.70;6.07;;;;;;;-1.60;82.70;102233.41;5050034;28;20033;-64
2022/01/24 09:14:08;;;;;;;9.70;6.47;;;;;;;-1.54;82.39;102239.34;5051677;28;20751;-65
2022/01/24 09:16:35;;;;;;;9.60;6.97;;;;;;;-1.51;82.65;102234.00;5054996;28;20061;-63
2022/01/24 09:19:03;;;;;;;;;;;;;;;-1.41;82.40;102246.75;5055445;28;20041;-62
2022/01/24 09:21:29;;;;;;;12.17;7.10;;;;;;;-1.55;82.51;102235.88;5053750;28;19923;-65
2022/01/24 09:23:55;;;;;;;7.78;6.55;;;;;;;-1.55;82.57;102233.25;5055226;28;20041;-65
2022/01/24 09:26:20;;;;;;;10.60;5.60;;;;;;;-1.59;82.89;102237.72;5055154;28;20090;-65
2022/01/24 09:28:46;;;;;;;15.57;7.10;;;;;;;-1.67;83.34;102229.28;5054648;28;20041;-66
2022/01/24 09:31:12;;;;;;;12.30;6.90;;;;;;;-1.56;83.19;102236.78;5053771;28;20024;-67
2022/01/24 09:33:38;;;;;;;8.70;6.57;;;;;;;-1.53;82.98;102212.31;5054447;28;20522;-68
2022/01/24 09:36:04;;;;;;;12.17;7.13;;;;;;;-1.43;83.05;102222.44;5053004;28;20036;-64
2022/01/24 09:38:32;;;;;;;10.65;7.15;;;;;;;-1.49;82.97;102212.16;5054432;28;20029;-66
2022/01/24 09:41:07;;;;;;;10.07;7.55;;;;;;;-1.60;82.58;102201.19;5054679;28;20029;-75
2022/01/24 09:43:33;;;;;;;10.75;7.53;;;;;;;-1.49;82.37;102219.13;5053681;28;20037;-72
2022/01/24 09:45:59;;;;;;;9.25;6.85;;;;;;;-1.43;82.74;102224.19;5054623;28;20074;-71
2022/01/24 09:48:26;;;;;;;12.70;7.78;;;;;;;-1.44;83.11;102214.63;5054284;28;20087;-71
2022/01/24 09:50:53;;;;;;;10.52;6.93;;;;;;;-1.46;82.85;102213.81;5054343;28;20037;-67
2022/01/24 09:53:24;;;;;;;12.48;7.30;;;;;;;-1.38;82.94;102204.81;5054181;28;20040;-65
2022/01/24 09:55:50;;;;;;;10.73;8.02;;;;;;;-1.41;82.57;102199.72;5054333;28;20029;-67
2022/01/24 09:58:16;;;;;;;9.70;6.80;;;;;;;-1.46;83.08;102185.06;5054345;28;20045;-66
2022/01/24 10:00:43;;;;;;;13.88;9.93;;;;;;;-1.34;82.40;102190.75;5054548;28;20078;-65
2022/01/24 10:03:12;;;;;;;12.87;7.70;;;;;;;-1.27;81.80;102191.38;5054152;28;20032;-66
2022/01/24 10:05:39;;;;;;;10.77;6.73;;;;;;;-1.27;81.94;102186.16;5054380;28;20256;-63
2022/01/24 10:08:07;;;;;;;8.95;6.55;;;;;;;-1.28;82.37;102187.06;5054449;28;20256;-65
2022/01/24 10:10:34;;;;;;;10.25;6.35;;;;;;;-1.36;82.41;102184.72;5054213;28;20053;-63
2022/01/24 10:16:26;;;;;;;10.32;7.28;;;;;;;-1.28;82.11;102179.22;5053533;28;20295;-67
2022/01/24 10:19:13;;;;;;;8.27;6.70;;;;;;;-1.28;81.99;102184.47;5053304;28;20135;-68
2022/01/24 10:21:44;;;;;;;7.65;6.28;;;;;;;-1.39;82.12;102168.28;5054833;28;20454;-66
2022/01/24 10:24:12;;;;;;;7.45;5.75;;;;;;;-1.30;81.90;102170.59;5055908;28;20036;-67
2022/01/24 10:26:38;;;;;;;9.37;5.90;;;;;;;-1.31;82.05;102168.88;5053813;28;20041;-67
2022/01/24 10:29:13;;;;;;;8.40;5.37;;;;;;;-1.25;81.75;102164.28;5053850;28;20664;-64
2022/01/24 10:31:56;;;;;;;9.13;6.10;;;;;;;-1.27;80.87;102155.66;5054048;28;20278;-65
2022/01/24 10:34:28;;;;;;;8.73;6.10;;;;;;;-1.39;81.47;102136.94;5053620;28;20329;-65
2022/01/24 10:36:56;;;;;;;6.75;5.30;;;;;;;-1.34;81.42;102146.31;5053654;28;20040;-67
2022/01/24 10:44:52;;;;;;;8.18;6.40;;;;;;;-1.35;81.77;102147.22;5049017;28;20041;-67
2022/01/24 10:47:20;;;;;;;10.03;6.27;;;;;;;-1.29;81.31;102141.78;5053462;28;20424;-66
2022/01/24 10:49:46;;;;;;;8.90;6.40;;;;;;;-1.31;81.62;102127.91;5053433;28;20268;-66
2022/01/24 10:52:18;;;;;;;8.95;6.10;;;;;;;-1.27;81.34;102141.72;5052220;28;20393;-66
2022/01/24 10:54:44;;;;;;;7.87;5.90;;;;;;;-1.19;81.22;102147.53;5053188;28;20514;-66
2022/01/24 10:57:20;;;;;;;10.27;6.87;;;;;;;-1.23;80.52;102140.72;5053224;28;20288;-66
2022/01/24 10:59:45;;;;;;;7.88;5.65;;;;;;;-1.23;81.02;102145.09;5053396;28;20033;-66
2022/01/24 11:02:16;;;;;;;8.57;6.07;;;;;;;-1.26;80.83;102131.22;5053418;28;20518;-64
2022/01/24 11:04:42;;;;;;;7.13;5.10;;;;;;;-1.26;80.84;102135.59;5052348;28;20260;-64
2022/01/24 11:07:07;;;;;;;7.70;5.33;;;;;;;-1.30;81.14;102134.00;5052613;28;20055;-64
2022/01/24 11:09:42;;;;;;;7.57;5.00;;;;;;;-1.30;81.25;102134.84;5052413;28;20037;-68
2022/01/24 11:12:12;;;;;;;5.80;4.70;;;;;;;-1.36;81.29;102131.59;5052682;28;20135;-69
2022/01/24 11:14:40;;;;;;;6.47;5.30;;;;;;;-1.46;81.37;102102.31;5051668;28;20297;-68
2022/01/24 11:17:10;;;;;;;6.53;4.43;;;;;;;-1.29;81.66;102125.25;5052707;28;20333;-65
2022/01/24 11:19:42;;;;;;;5.87;4.83;;;;;;;-1.26;80.72;102128.59;5052732;28;20315;-63
2022/01/24 11:22:19;;;;;;;8.53;6.17;;;;;;;-1.25;81.01;102119.00;5052481;28;20274;-62
2022/01/24 11:24:52;;;;;;;6.45;4.55;;;;;;;-1.29;80.99;102114.78;5052938;28;20765;-66
2022/01/24 11:27:18;;;;;;;12.55;6.15;;;;;;;-1.22;80.56;102126.72;5052664;28;20044;-61
2022/01/24 11:29:44;;;;;;;7.03;4.70;;;;;;;-1.28;81.22;102111.28;5052447;28;20120;-65
2022/01/24 11:32:12;;;;;;;7.77;5.53;;;;;;;-1.31;80.65;102127.91;5052746;28;20128;-66
2022/01/24 11:34:39;;;;;;;5.38;4.30;;;;;;;-1.33;81.39;102110.59;5051296;28;20260;-70
2022/01/24 11:37:07;;;;;;;5.10;4.60;;;;;;;-1.31;81.23;102108.78;5051523;28;20044;-72
2022/01/24 11:39:34;;;;;;;8.50;5.10;;;;;;;-1.31;80.84;102112.25;5052611;28;20361;-69
2022/01/24 11:42:02;;;;;;;6.70;4.67;;;;;;;-1.23;80.85;102124.19;5052479;28;20271;-69
2022/01/24 11:44:46;;;;;;;8.40;5.50;;;;;;;-1.25;80.68;102098.09;5052393;28;20267;-71
2022/01/24 11:47:31;;;;;;;5.60;4.50;;;;;;;-1.34;80.72;102101.91;5052139;28;20742;-65
2022/01/24 11:49:57;;;;;;;5.20;4.50;;;;;;;-1.31;81.10;102111.38;5052548;28;20279;-68
2022/01/24 11:52:34;;;;;;;8.80;4.87;;;;;;;-1.31;80.75;102095.69;5053056;28;20461;-69
2022/01/24 11:55:30;;;;;;;7.68;5.22;;;;;;;-1.31;81.51;102100.94;5052193;28;20278;-72
2022/01/24 11:58:03;;;;;;;5.87;5.03;;;;;;;-1.33;81.47;102084.44;5051992;28;20058;-68
2022/01/24 12:00:34;;;;;;;7.87;4.30;;;;;;;-1.22;81.16;102099.75;5052404;28;20267;-69
2022/01/24 12:03:15;;;;;;;7.10;5.13;;;;;;;-1.33;81.79;102079.22;5052161;28;20260;-66
2022/01/24 12:05:45;;;;;;;5.78;4.68;;;;;;;-1.26;81.08;102088.53;5052834;28;20350;-70
2022/01/24 12:08:27;;;;;;;7.87;6.60;;;;;;;-1.22;81.86;102090.13;5052956;28;20028;-67
2022/01/24 12:10:54;;;;;;;6.43;4.87;;;;;;;-1.25;81.35;102082.41;5052859;28;20603;-69
2022/01/24 12:13:27;;;;;;;6.13;5.20;;;;;;;-1.27;81.77;102086.84;5052246;28;20259;-70
2022/01/24 12:16:01;;;;;;;9.77;4.73;;;;;;;-1.21;81.29;102081.38;5052148;28;20299;-70
2022/01/24 12:18:28;;;;;;;6.07;5.00;;;;;;;-1.22;81.67;102086.66;5051942;28;20283;-75
2022/01/24 12:21:05;;;;;;;5.83;5.03;;;;;;;-1.28;81.91;102083.38;5051937;28;20271;-70
2022/01/24 12:23:42;;;;;;;7.65;5.35;;;;;;;-1.25;81.78;102083.25;5052287;28;20770;-65
2022/01/24 12:26:29;;;;;;;6.03;4.43;;;;;;;-1.20;81.47;102092.69;5052892;28;20473;-69
2022/01/24 12:29:10;;;;;;;6.37;5.27;;;;;;;-1.21;82.18;102081.38;5052106;28;20810;-70
2022/01/24 12:31:42;;;;;;;7.57;5.93;;;;;;;-1.22;82.11;102076.22;5050880;28;20643;-68
2022/01/24 12:34:37;;;;;;;6.43;5.03;;;;;;;-1.25;82.11;102066.72;5052550;28;20264;-69
2022/01/24 12:37:12;;;;;;;7.20;5.68;;;;;;;-1.24;82.21;102068.44;5049636;28;20044;-69
2022/01/24 12:39:50;;;;;;;7.80;5.17;;;;;;;-1.22;82.45;102069.22;5051792;28;20385;-67
2022/01/24 12:42:31;;;;;;;7.70;6.13;;;;;;;-1.19;81.82;102074.34;5053853;28;20260;-71
2022/01/24 12:47:42;;;;;;;11.60;6.97;;;;;;;-1.19;81.43;102049.97;5051742;28;20741;-66
2022/01/24 12:50:10;;;;;;;10.17;6.67;;;;;;;-1.13;81.66;102078.53;5055713;28;20264;-68
2022/01/24 12:52:37;;;;;;;7.90;5.70;;;;;;;-1.15;81.34;102060.28;5056070;28;20267;-66
2022/01/24 12:55:03;;;;;;;7.90;6.07;;;;;;;-1.14;81.73;102061.97;5056473;28;20069;-65
2022/01/24 12:57:30;;;;;;;6.40;5.33;;;;;;;-1.08;81.45;102050.44;5055871;28;21259;-67
2022/01/24 13:00:03;;;;;;;9.23;5.77;;;;;;;-1.01;81.19;102063.22;5056851;28;20268;-66
2022/01/24 13:02:32;;;;;;;8.50;6.53;;;;;;;-1.07;80.74;102041.69;5056006;28;20373;-66
2022/01/24 13:05:03;;;;;;;6.57;4.93;;;;;;;-1.00;80.60;102044.00;5055845;28;20298;-69
2022/01/24 13:07:31;;;;;;;7.45;5.65;;;;;;;-1.04;81.16;102031.97;5056205;28;20068;-66
2022/01/24 13:10:04;;;;;;;10.23;6.00;;;;;;;-0.99;81.11;102035.25;5056693;28;20044;-67
2022/01/24 13:12:30;;;;;;;5.63;4.93;;;;;;;-1.09;81.38;102017.38;5056325;28;20504;-67